Aviation Digital Data Service (ADDS)

Output produced by TAFs form (0749 UTC 02 April 2015)
found at http://aviationweather.gov/adds/tafs/
 
KRIL 020521Z 0206/0306 32003KT P6SM OVC200 
     FM021700 26014G24KT P6SM BKN100 OVC250 
     FM030200 31012KT P6SM BKN100